Time;durP1;ratioP1;P1;durP2;ratioP2;P2;SDS_P1;SDS_P2;PMS_P1;PMS_P2;Temp;Humidity;BMP_temperature;BMP_pressure;BME280_temperature;BME280_humidity;BME280_pressure;Samples;Min_cycle;Max_cycle;Signal;HPM_P1;HPM_P2
2021/07/23 00:01:12;;;;;;;9.25;4.63;;;;;;;25.90;93.67;101155.84;4940746;29;20115;-70
2021/07/23 00:03:58;;;;;;;7.40;5.00;;;;;;;25.77;95.04;101163.09;4940029;29;20039;-70
2021/07/23 00:06:44;;;;;;;8.65;4.38;;;;;;;25.93;94.43;101151.13;4940303;29;20031;-70
2021/07/23 00:09:29;;;;;;;6.30;4.35;;;;;;;25.88;94.63;101161.31;4940107;29;20051;-70
2021/07/23 00:12:15;;;;;;;8.27;4.40;;;;;;;26.07;93.90;101156.34;4940023;29;20361;-70
2021/07/23 00:15:01;;;;;;;8.00;4.40;;;;;;;25.84;95.29;101159.00;4939731;29;20110;-70
2021/07/23 00:17:47;;;;;;;6.88;4.38;;;;;;;25.99;94.43;101156.06;4940105;29;20032;-70
2021/07/23 00:20:32;;;;;;;7.70;4.03;;;;;;;25.63;96.99;101152.53;4940140;29;20036;-70
2021/07/23 00:23:18;;;;;;;7.90;4.43;;;;;;;25.97;95.06;101160.72;4940320;29;20038;-70
2021/07/23 00:26:12;;;;;;;9.82;4.45;;;;;;;25.82;96.69;101163.59;4939499;29;20082;-70
2021/07/23 00:28:58;;;;;;;13.70;4.80;;;;;;;25.66;97.19;101155.81;4940070;29;20035;-70
2021/07/23 00:31:44;;;;;;;9.02;4.43;;;;;;;25.80;96.84;101161.03;4939250;29;20028;-70
2021/07/23 00:34:29;;;;;;;8.80;4.15;;;;;;;25.85;96.25;101161.56;4940150;29;20055;-70
2021/07/23 00:37:15;;;;;;;9.32;4.22;;;;;;;25.56;97.60;101153.94;4939474;29;20024;-71
2021/07/23 00:40:01;;;;;;;7.70;4.50;;;;;;;25.72;96.38;101159.91;4940393;29;20031;-70
2021/07/23 00:42:47;;;;;;;10.23;4.30;;;;;;;25.63;96.34;101150.69;4938985;29;20035;-70
2021/07/23 00:45:32;;;;;;;10.05;4.10;;;;;;;25.61;96.76;101149.06;4940364;29;20046;-70
2021/07/23 00:48:18;;;;;;;10.10;4.80;;;;;;;25.44;97.36;101152.97;4939254;29;20027;-70
2021/07/23 00:51:04;;;;;;;7.30;4.20;;;;;;;25.32;97.62;101145.81;4939886;29;20119;-70
2021/07/23 00:53:51;;;;;;;7.68;4.18;;;;;;;25.36;97.13;101157.19;4926189;29;20074;-70
2021/07/23 00:56:37;;;;;;;7.22;4.38;;;;;;;25.22;98.18;101151.91;4939930;28;20094;-70
2021/07/23 00:59:23;;;;;;;14.57;4.50;;;;;;;25.47;96.29;101155.44;4939687;29;20055;-70
2021/07/23 01:02:09;;;;;;;5.43;4.22;;;;;;;25.27;97.46;101150.59;4938363;29;20036;-70
2021/07/23 01:04:55;;;;;;;7.72;4.30;;;;;;;25.51;95.77;101145.38;4939421;29;20031;-70
2021/07/23 01:07:42;;;;;;;9.80;4.60;;;;;;;25.40;96.16;101145.28;4939315;29;20035;-70
2021/07/23 01:10:28;;;;;;;8.82;4.18;;;;;;;25.31;97.35;101152.13;4939202;29;20063;-70
2021/07/23 01:13:14;;;;;;;8.95;4.30;;;;;;;25.07;98.48;101142.28;4939433;29;20059;-70
2021/07/23 01:16:01;;;;;;;9.20;4.20;;;;;;;25.02;99.54;101139.91;4939714;29;20036;-70
2021/07/23 01:18:47;;;;;;;13.85;4.72;;;;;;;24.91;99.67;101147.00;4939652;29;20028;-70
2021/07/23 01:21:34;;;;;;;9.15;4.05;;;;;;;25.24;97.50;101148.13;4925339;29;20038;-70
2021/07/23 01:24:21;;;;;;;15.35;4.95;;;;;;;25.43;96.58;101147.75;4939876;29;20039;-70
2021/07/23 01:27:07;;;;;;;11.82;4.25;;;;;;;25.51;95.67;101145.38;4925164;29;20491;-70
2021/07/23 01:30:00;;;;;;;11.10;4.22;;;;;;;25.27;96.58;101152.44;4939241;29;20131;-70
2021/07/23 01:32:46;;;;;;;9.55;4.15;;;;;;;24.99;97.93;101145.47;4938877;29;20203;-70
2021/07/23 01:35:31;;;;;;;11.30;3.80;;;;;;;25.33;95.90;101146.66;4925378;29;20054;-70
2021/07/23 01:38:20;;;;;;;7.90;4.28;;;;;;;25.20;96.90;101148.47;4938193;29;20520;-70
2021/07/23 01:41:06;;;;;;;5.43;3.70;;;;;;;25.11;97.77;101147.28;4938928;29;20107;-70
2021/07/23 01:43:52;;;;;;;6.10;4.25;;;;;;;25.10;98.20;101147.41;4938251;29;20063;-70
2021/07/23 01:46:38;;;;;;;6.95;4.00;;;;;;;25.05;98.81;101147.75;4938350;29;20098;-70
2021/07/23 01:49:24;;;;;;;6.18;4.10;;;;;;;25.00;99.12;101143.66;4938815;29;20063;-70
2021/07/23 01:52:09;;;;;;;6.50;4.63;;;;;;;25.07;99.43;101142.28;4938954;29;20114;-70
2021/07/23 01:54:55;;;;;;;9.35;4.38;;;;;;;25.09;99.02;101137.66;4938524;29;20095;-70
2021/07/23 01:57:41;;;;;;;9.05;4.30;;;;;;;24.80;100.00;101134.34;4939192;29;20348;-70
2021/07/23 02:00:26;;;;;;;8.93;4.28;;;;;;;24.88;100.00;101141.84;4938744;29;20068;-70
2021/07/23 02:03:12;;;;;;;7.80;4.15;;;;;;;24.89;100.00;101141.75;4938193;29;20404;-70
2021/07/23 02:05:58;;;;;;;7.60;4.18;;;;;;;24.81;100.00;101141.41;4939427;28;20118;-70
2021/07/23 02:08:44;;;;;;;9.77;4.13;;;;;;;24.97;100.00;101138.50;4937631;29;20095;-70
2021/07/23 02:11:30;;;;;;;11.32;4.03;;;;;;;24.86;100.00;101139.25;4938244;29;20055;-70
2021/07/23 02:14:16;;;;;;;8.43;4.22;;;;;;;24.89;100.00;101147.09;4937508;29;20059;-70
2021/07/23 02:17:02;;;;;;;10.02;4.28;;;;;;;24.70;100.00;101145.78;4938562;29;20552;-70
2021/07/23 02:19:48;;;;;;;7.35;3.97;;;;;;;24.71;100.00;101145.69;4938429;29;20515;-70
2021/07/23 02:22:36;;;;;;;9.07;3.95;;;;;;;24.56;100.00;101148.53;4938625;29;20047;-70
2021/07/23 02:25:21;;;;;;;7.20;3.85;;;;;;;24.88;100.00;101145.41;4938195;29;20031;-70
2021/07/23 02:28:07;;;;;;;9.55;4.38;;;;;;;24.60;100.00;101144.69;4937819;29;20028;-70
2021/07/23 02:30:53;;;;;;;11.07;4.07;;;;;;;24.45;100.00;101148.41;4924056;29;20500;-70
2021/07/23 02:33:39;;;;;;;7.57;4.05;;;;;;;24.41;100.00;101145.06;4925122;29;20099;-70
2021/07/23 02:36:25;;;;;;;11.75;4.47;;;;;;;24.50;100.00;101155.16;4937053;29;20027;-70
2021/07/23 02:39:11;;;;;;;7.22;4.07;;;;;;;24.41;100.00;101158.47;4937945;29;20027;-70
2021/07/23 02:41:57;;;;;;;8.77;3.97;;;;;;;24.39;100.00;101155.03;4937890;29;20042;-70
2021/07/23 02:44:42;;;;;;;6.80;4.20;;;;;;;24.40;100.00;101151.41;4937753;29;20055;-70
2021/07/23 02:47:28;;;;;;;8.27;4.28;;;;;;;24.06;100.00;101153.75;4937662;29;20095;-70
2021/07/23 02:50:14;;;;;;;5.20;3.95;;;;;;;24.55;100.00;101154.88;4937580;29;20360;-70
2021/07/23 02:53:00;;;;;;;7.57;4.13;;;;;;;24.33;100.00;101159.94;4937950;29;20069;-70
2021/07/23 02:55:49;;;;;;;7.30;4.05;;;;;;;24.01;100.00;101156.72;4937635;29;20376;-70
2021/07/23 02:58:37;;;;;;;8.75;4.20;;;;;;;24.02;100.00;101161.13;4937786;29;20028;-70
2021/07/23 03:01:23;;;;;;;8.38;3.97;;;;;;;24.14;100.00;101156.78;4937123;29;20102;-70
2021/07/23 03:04:09;;;;;;;7.75;4.22;;;;;;;24.06;100.00;101156.44;4938790;28;20099;-70
2021/07/23 03:06:54;;;;;;;12.90;4.45;;;;;;;24.29;100.00;101153.94;4937082;29;20071;-70
2021/07/23 03:09:40;;;;;;;5.90;4.22;;;;;;;24.05;100.00;101152.03;4936758;29;20059;-70
2021/07/23 03:12:26;;;;;;;7.53;4.35;;;;;;;23.91;100.00;101155.59;4936950;29;20102;-70
2021/07/23 03:15:12;;;;;;;7.40;4.40;;;;;;;23.89;100.00;101152.16;4937192;29;20027;-70
2021/07/23 03:17:59;;;;;;;7.50;4.10;;;;;;;23.96;100.00;101155.31;4937630;29;20087;-70
2021/07/23 03:20:45;;;;;;;5.90;4.10;;;;;;;24.01;100.00;101162.09;4937227;29;20034;-70
2021/07/23 03:23:31;;;;;;;8.18;4.15;;;;;;;23.71;100.00;101165.88;4937899;29;20047;-69
2021/07/23 03:26:17;;;;;;;7.72;4.75;;;;;;;23.95;100.00;101158.97;4936690;29;20047;-69
2021/07/23 03:29:03;;;;;;;6.88;4.25;;;;;;;23.94;100.00;101165.28;4937476;29;20130;-70
2021/07/23 03:31:48;;;;;;;9.98;4.05;;;;;;;23.98;100.00;101177.50;4923940;29;20031;-70
2021/07/23 03:34:34;;;;;;;9.68;4.03;;;;;;;23.61;100.00;101172.75;4936658;29;20441;-69
2021/07/23 03:37:20;;;;;;;7.35;4.40;;;;;;;23.85;100.00;101169.38;4936641;29;20034;-69
2021/07/23 03:40:07;;;;;;;10.40;4.65;;;;;;;24.17;100.00;101178.84;4936803;29;20024;-69
2021/07/23 03:42:53;;;;;;;7.85;4.65;;;;;;;24.36;100.00;101174.00;4937849;29;20032;-69
2021/07/23 03:45:38;;;;;;;7.15;4.28;;;;;;;24.11;100.00;101181.09;4937337;29;20035;-69
2021/07/23 03:48:24;;;;;;;14.25;5.35;;;;;;;23.83;100.00;101178.47;4937212;29;20024;-69
2021/07/23 03:51:10;;;;;;;11.32;4.60;;;;;;;24.41;100.00;101185.25;4936769;29;20087;-69
2021/07/23 03:53:56;;;;;;;17.27;4.30;;;;;;;24.61;100.00;101186.63;4936973;29;20475;-70
2021/07/23 03:56:42;;;;;;;9.77;4.85;;;;;;;24.40;100.00;101188.03;4936292;29;20023;-70
2021/07/23 03:59:27;;;;;;;10.50;4.88;;;;;;;24.53;100.00;101181.75;4937056;29;20087;-69
2021/07/23 04:02:13;;;;;;;11.93;4.70;;;;;;;24.32;100.00;101179.66;4938242;28;20058;-69
2021/07/23 04:04:59;;;;;;;16.05;8.75;;;;;;;24.14;100.00;101194.28;4937376;29;20050;-69
2021/07/23 04:07:44;;;;;;;10.90;4.32;;;;;;;23.88;100.00;101193.25;4936512;29;20042;-70
2021/07/23 04:10:30;;;;;;;7.75;4.30;;;;;;;24.29;100.00;101199.47;4936958;29;20064;-70
2021/07/23 04:13:16;;;;;;;9.48;4.20;;;;;;;24.67;100.00;101200.44;4936630;29;20028;-70
2021/07/23 04:16:02;;;;;;;9.18;4.38;;;;;;;24.15;100.00;101196.00;4937104;29;20361;-71
2021/07/23 04:18:47;;;;;;;10.27;4.40;;;;;;;24.26;100.00;101194.31;4938608;29;20361;-70
2021/07/23 04:21:33;;;;;;;7.15;4.40;;;;;;;24.35;100.00;101188.34;4941078;29;20400;-70
2021/07/23 04:24:19;;;;;;;7.22;4.40;;;;;;;24.52;100.00;101185.41;4940632;29;20040;-70
2021/07/23 04:27:05;;;;;;;10.65;4.38;;;;;;;24.58;100.00;101193.00;4940284;29;20344;-70
2021/07/23 04:29:50;;;;;;;11.10;4.20;;;;;;;24.58;100.00;101194.81;4939881;29;20364;-70
2021/07/23 04:32:36;;;;;;;6.85;4.47;;;;;;;24.51;100.00;101190.88;4940123;29;20533;-70
2021/07/23 04:35:22;;;;;;;11.40;4.20;;;;;;;24.34;100.00;101189.31;4939924;29;20032;-70
2021/07/23 04:38:08;;;;;;;12.80;4.78;;;;;;;24.68;100.00;101187.94;4939617;29;20035;-70
2021/07/23 04:40:53;;;;;;;12.02;4.85;;;;;;;24.98;100.00;101186.66;4940425;29;20043;-70
2021/07/23 04:43:39;;;;;;;8.95;5.07;;;;;;;24.97;100.00;101186.78;4939345;29;20039;-70
2021/07/23 04:46:25;;;;;;;15.90;6.45;;;;;;;24.94;100.00;101182.47;4940066;29;20028;-70
2021/07/23 04:49:11;;;;;;;8.82;4.32;;;;;;;24.86;100.00;101187.53;4926217;29;20031;-69
2021/07/23 04:51:56;;;;;;;10.52;4.93;;;;;;;24.31;100.00;101192.19;4939933;29;20031;-70
2021/07/23 04:54:42;;;;;;;9.77;4.85;;;;;;;24.13;100.00;101185.38;4939812;29;20073;-71
2021/07/23 04:57:29;;;;;;;11.18;4.47;;;;;;;24.71;100.00;101191.25;4940229;29;20051;-70
2021/07/23 05:00:15;;;;;;;8.52;4.47;;;;;;;24.52;100.00;101187.22;4939736;29;20365;-70
2021/07/23 05:03:01;;;;;;;8.32;4.05;;;;;;;24.85;100.00;101190.31;4939668;29;20034;-70
2021/07/23 05:05:48;;;;;;;9.48;4.72;;;;;;;24.74;100.00;101195.53;4940115;29;20042;-70
2021/07/23 05:08:37;;;;;;;7.47;4.50;;;;;;;24.75;100.00;101187.38;4940043;29;20031;-70
2021/07/23 05:11:24;;;;;;;7.45;4.38;;;;;;;24.41;100.00;101184.38;4940113;29;20047;-70
2021/07/23 05:14:09;;;;;;;10.68;4.57;;;;;;;24.37;100.00;101189.09;4939583;29;20115;-70
2021/07/23 05:16:55;;;;;;;15.25;5.15;;;;;;;24.42;100.00;101181.59;4938737;29;20403;-70
2021/07/23 05:19:41;;;;;;;11.52;5.60;;;;;;;24.97;100.00;101186.78;4925267;29;20028;-70
2021/07/23 05:22:28;;;;;;;9.23;5.30;;;;;;;24.98;100.00;101188.47;4939526;29;20467;-70
2021/07/23 05:25:14;;;;;;;9.10;4.70;;;;;;;24.63;100.00;101193.59;4925128;29;20070;-69
2021/07/23 05:28:00;;;;;;;7.65;4.50;;;;;;;24.41;100.00;101192.44;4939539;29;20043;-70
2021/07/23 05:30:47;;;;;;;13.75;5.07;;;;;;;24.45;100.00;101194.81;4938852;29;20050;-70
2021/07/23 05:33:33;;;;;;;7.45;4.95;;;;;;;24.20;100.00;101204.56;4938838;29;20031;-69
2021/07/23 05:36:18;;;;;;;15.52;6.18;;;;;;;24.56;100.00;101196.75;4938549;29;20475;-70
2021/07/23 05:39:04;;;;;;;10.23;5.25;;;;;;;24.69;100.00;101192.31;4938344;29;20032;-70
2021/07/23 05:41:50;;;;;;;14.45;6.55;;;;;;;25.24;100.00;101204.47;4938965;29;20106;-70
2021/07/23 05:44:35;;;;;;;21.33;6.80;;;;;;;24.82;100.00;101209.28;4938372;29;20027;-70
2021/07/23 05:47:21;;;;;;;28.48;7.40;;;;;;;24.62;100.00;101205.28;4939093;29;20106;-70
2021/07/23 05:50:08;;;;;;;18.05;6.05;;;;;;;25.21;100.00;101203.84;4938718;29;20136;-70
2021/07/23 05:52:55;;;;;;;18.45;5.90;;;;;;;25.72;100.00;101210.91;4938890;29;20377;-70
2021/07/23 05:55:41;;;;;;;15.93;5.15;;;;;;;25.93;97.73;101220.94;4938634;29;20038;-70
2021/07/23 05:58:27;;;;;;;15.13;5.55;;;;;;;26.08;96.66;101211.78;4938844;29;20024;-70
2021/07/23 06:01:13;;;;;;;12.70;5.75;;;;;;;26.09;97.04;101207.28;4938376;29;20046;-70
2021/07/23 06:03:59;;;;;;;12.93;6.18;;;;;;;26.33;96.43;101205.44;4938935;29;20032;-70
2021/07/23 06:06:45;;;;;;;15.98;5.70;;;;;;;25.93;96.96;101206.66;4938267;29;20040;-70
2021/07/23 06:09:31;;;;;;;10.60;5.40;;;;;;;26.23;96.05;101201.72;4938364;29;20392;-71
2021/07/23 06:12:18;;;;;;;22.80;7.13;;;;;;;26.23;94.84;101201.72;4938202;29;20058;-70
2021/07/23 06:15:05;;;;;;;19.50;5.82;;;;;;;26.30;95.35;101206.53;4938035;29;20039;-70
2021/07/23 06:17:50;;;;;;;10.27;5.15;;;;;;;26.60;92.99;101206.09;4938568;29;20093;-70
2021/07/23 06:20:36;;;;;;;15.68;5.38;;;;;;;26.80;91.69;101203.59;4937503;29;20346;-70
2021/07/23 06:23:24;;;;;;;13.77;5.00;;;;;;;26.38;91.03;101209.50;4938870;29;20115;-71
2021/07/23 06:26:10;;;;;;;10.63;5.00;;;;;;;26.34;90.88;101209.84;4924244;29;20058;-71
2021/07/23 06:28:56;;;;;;;10.60;5.25;;;;;;;26.77;88.28;101217.25;4939671;28;20062;-71
2021/07/23 06:31:42;;;;;;;15.38;6.13;;;;;;;26.80;89.05;101211.66;4937183;29;20038;-71
2021/07/23 06:34:28;;;;;;;20.90;7.22;;;;;;;26.65;93.04;101210.13;4938052;29;20035;-71
2021/07/23 06:37:16;;;;;;;15.07;5.53;;;;;;;26.66;90.47;101208.31;4937380;29;20027;-71
2021/07/23 06:40:02;;;;;;;11.77;5.57;;;;;;;26.79;85.44;101206.38;4937378;29;20050;-71
2021/07/23 06:42:47;;;;;;;10.32;5.20;;;;;;;26.51;89.87;101209.44;4924253;29;20024;-71
2021/07/23 06:45:33;;;;;;;7.10;4.43;;;;;;;26.70;90.26;101215.16;4937198;29;20469;-72
2021/07/23 06:48:19;;;;;;;25.17;7.32;;;;;;;25.98;91.60;101209.88;4937212;29;20101;-71
2021/07/23 06:51:05;;;;;;;19.17;6.60;;;;;;;26.36;90.37;101215.97;4937519;29;20060;-70
2021/07/23 06:53:50;;;;;;;11.43;5.22;;;;;;;26.66;85.68;101211.00;4936973;29;20035;-71
2021/07/23 06:56:36;;;;;;;20.85;5.95;;;;;;;26.96;82.71;101214.00;4936493;29;20038;-71
2021/07/23 06:59:22;;;;;;;17.63;5.55;;;;;;;26.83;82.38;101211.44;4937430;29;20120;-71
2021/07/23 07:02:08;;;;;;;14.40;5.35;;;;;;;26.85;80.92;101208.63;4937239;29;20430;-71
2021/07/23 07:04:53;;;;;;;34.75;8.60;;;;;;;26.98;80.88;101209.38;4937741;29;20036;-71
2021/07/23 07:07:39;;;;;;;16.42;5.10;;;;;;;27.05;79.60;101206.09;4937491;29;20074;-71
2021/07/23 07:10:26;;;;;;;9.35;4.03;;;;;;;27.23;79.20;101202.00;4938492;28;20501;-71
2021/07/23 07:13:11;;;;;;;11.45;4.57;;;;;;;27.22;80.48;101202.13;4937656;29;20050;-71
2021/07/23 07:15:57;;;;;;;11.45;4.63;;;;;;;26.86;81.47;101203.13;4936895;29;20039;-71
2021/07/23 07:18:43;;;;;;;8.95;4.72;;;;;;;27.09;79.58;101201.34;4937028;29;20042;-71
2021/07/23 07:21:28;;;;;;;10.38;4.30;;;;;;;26.96;74.04;101205.94;4936658;29;20024;-71
2021/07/23 07:24:20;;;;;;;8.05;4.20;;;;;;;27.02;75.48;101205.47;4937289;29;20024;-71
2021/07/23 07:27:09;;;;;;;10.10;3.65;;;;;;;26.86;69.09;101205.81;4937311;29;20114;-72
2021/07/23 07:29:54;;;;;;;6.22;3.80;;;;;;;26.71;71.36;101207.00;4937270;29;20032;-72
2021/07/23 07:32:40;;;;;;;10.43;4.18;;;;;;;27.11;66.69;101210.13;4936899;29;20090;-70
2021/07/23 07:35:26;;;;;;;13.98;4.05;;;;;;;27.20;67.04;101196.84;4938071;29;20062;-69
2021/07/23 07:38:12;;;;;;;6.18;2.95;;;;;;;27.52;60.28;101191.59;4938549;28;20119;-70
2021/07/23 07:40:57;;;;;;;7.20;3.67;;;;;;;28.14;59.92;101205.38;4937728;29;20326;-71
2021/07/23 07:43:43;;;;;;;8.13;3.22;;;;;;;28.16;59.55;101211.50;4936555;29;20512;-71
2021/07/23 07:46:29;;;;;;;6.18;3.50;;;;;;;28.58;58.99;101198.03;4938051;29;20035;-70
2021/07/23 07:49:19;;;;;;;9.23;3.47;;;;;;;28.94;55.35;101197.59;4936610;29;20028;-71
2021/07/23 07:52:05;;;;;;;6.95;2.90;;;;;;;28.96;52.00;101197.44;4938417;29;20038;-72
2021/07/23 07:54:51;;;;;;;5.93;3.50;;;;;;;28.61;54.18;101196.91;4941425;29;20042;-72
2021/07/23 07:57:37;;;;;;;7.55;2.95;;;;;;;28.61;51.62;101191.50;4940386;29;20027;-72
2021/07/23 08:00:23;;;;;;;6.70;2.92;;;;;;;28.44;52.55;101190.22;4940514;29;20361;-71
2021/07/23 08:03:08;;;;;;;6.10;3.20;;;;;;;28.81;52.41;101191.50;4940754;29;20075;-71
2021/07/23 08:06:01;;;;;;;8.13;2.90;;;;;;;29.26;50.44;101197.50;4941292;29;20070;-71
2021/07/23 08:08:48;;;;;;;7.30;2.90;;;;;;;29.16;50.57;101193.88;4940626;29;20028;-71
2021/07/23 08:11:35;;;;;;;8.88;2.90;;;;;;;29.53;47.28;101198.63;4940274;29;20051;-70
2021/07/23 08:14:21;;;;;;;4.50;2.83;;;;;;;29.02;47.64;101197.81;4939766;29;20365;-72
2021/07/23 08:17:07;;;;;;;11.82;2.85;;;;;;;28.86;48.22;101192.00;4939412;29;20023;-71
2021/07/23 08:19:52;;;;;;;9.38;2.90;;;;;;;29.29;47.62;101198.09;4941269;29;20020;-72
2021/07/23 08:22:38;;;;;;;8.13;3.00;;;;;;;29.63;47.11;101204.97;4940963;29;20028;-70
2021/07/23 08:25:24;;;;;;;8.10;3.40;;;;;;;29.81;44.96;101195.22;4925720;29;20102;-71
2021/07/23 08:28:13;;;;;;;9.80;2.95;;;;;;;30.73;43.88;101197.50;4927345;29;20023;-70
2021/07/23 08:30:59;;;;;;;10.93;3.67;;;;;;;30.08;43.23;101195.44;4940977;29;20050;-72
2021/07/23 08:33:45;;;;;;;17.65;3.35;;;;;;;29.67;43.85;101190.19;4940391;29;20062;-71
2021/07/23 08:36:32;;;;;;;8.68;3.47;;;;;;;29.40;45.13;101191.75;4926058;29;20115;-71
2021/07/23 08:39:18;;;;;;;10.45;3.88;;;;;;;29.69;44.29;101187.38;4940027;29;20023;-70
2021/07/23 08:42:26;;;;;;;20.75;4.05;;;;;;;29.97;44.52;101175.78;4940628;29;20057;-70
2021/07/23 08:45:13;;;;;;;20.58;3.95;;;;;;;30.15;44.79;101177.69;4925885;29;20456;-70
2021/07/23 09:42:23;;;;;;;5.47;3.20;;;;;;;31.30;42.71;101167.66;5838054;23;20034;-71
2021/07/23 09:45:12;;;;;;;8.10;3.80;;;;;;;31.08;44.77;101165.25;5017330;28;20123;-69
2021/07/23 09:48:14;;;;;;;4.53;3.20;;;;;;;30.88;43.52;101150.91;5016582;28;20029;-69
2021/07/23 09:51:00;;;;;;;8.68;3.10;;;;;;;30.78;43.74;101154.66;5015686;28;20061;-72
2021/07/23 09:53:45;;;;;;;6.35;3.17;;;;;;;30.84;43.89;101151.34;5003173;28;20033;-71
2021/07/23 09:56:31;;;;;;;5.20;3.22;;;;;;;30.84;43.40;101157.63;5015690;28;20167;-72
2021/07/23 09:59:28;;;;;;;6.22;3.05;;;;;;;30.76;43.83;101151.22;5015403;28;20420;-71
2021/07/23 10:02:21;;;;;;;5.53;2.97;;;;;;;30.33;43.25;101150.78;5015201;28;20026;-71
2021/07/23 10:05:12;;;;;;;4.53;3.08;;;;;;;30.38;44.17;101153.94;5015784;28;20136;-71
2021/07/23 10:08:02;;;;;;;7.53;3.25;;;;;;;30.91;43.64;101150.59;5015321;28;20026;-71
2021/07/23 10:10:51;;;;;;;9.27;3.25;;;;;;;30.35;44.05;101152.38;5015311;28;20130;-71
2021/07/23 10:13:40;;;;;;;4.60;2.90;;;;;;;30.47;44.17;101144.97;5015797;28;20037;-71
2021/07/23 10:16:26;;;;;;;5.72;2.95;;;;;;;30.58;43.63;101140.25;5002087;28;20092;-71
2021/07/23 10:19:12;;;;;;;6.25;3.20;;;;;;;30.72;44.08;101142.53;5016416;28;20026;-71
2021/07/23 10:21:59;;;;;;;6.35;3.35;;;;;;;30.61;45.02;101141.78;5015324;28;20080;-71
2021/07/23 10:24:45;;;;;;;5.55;3.50;;;;;;;30.49;45.15;101140.25;5015690;28;20038;-71
2021/07/23 10:27:31;;;;;;;5.88;3.67;;;;;;;30.16;44.87;101133.44;5016213;28;21960;-70
2021/07/23 10:30:36;;;;;;;7.50;3.90;;;;;;;31.06;44.31;101134.78;5015129;28;20171;-71
2021/07/23 10:33:51;;;;;;;4.80;3.17;;;;;;;30.76;43.27;101132.28;5015656;28;20125;-71
2021/07/23 10:36:39;;;;;;;6.40;3.50;;;;;;;29.55;45.17;101129.13;5002098;28;20029;-71
2021/07/23 10:39:25;;;;;;;11.73;3.63;;;;;;;30.32;44.99;101131.03;5015072;28;20032;-71
2021/07/23 10:42:11;;;;;;;10.35;3.40;;;;;;;30.32;44.33;101122.91;5001375;28;20053;-72
2021/07/23 10:44:56;;;;;;;6.03;2.95;;;;;;;30.28;44.35;101112.50;5015046;28;20100;-71
2021/07/23 10:47:46;;;;;;;7.32;3.17;;;;;;;30.24;45.02;101119.19;5015634;28;20022;-70
2021/07/23 10:50:46;;;;;;;5.72;3.40;;;;;;;29.95;44.50;101118.31;5015561;28;20034;-71
2021/07/23 10:53:32;;;;;;;4.95;3.40;;;;;;;30.47;44.87;101116.06;5015508;28;20118;-71
2021/07/23 10:57:00;;;;;;;6.50;3.10;;;;;;;29.70;45.43;101106.16;5002447;28;20045;-71
2021/07/23 10:59:46;;;;;;;4.97;3.10;;;;;;;29.78;45.79;101116.28;5015537;28;20519;-70
2021/07/23 11:02:31;;;;;;;5.38;3.58;;;;;;;29.57;46.52;101108.28;5014874;28;20057;-71
2021/07/23 11:05:18;;;;;;;5.18;3.00;;;;;;;30.45;44.93;101096.41;5014901;28;20429;-70
2021/07/23 11:08:04;;;;;;;5.85;3.05;;;;;;;30.95;43.66;101097.88;5015538;28;20450;-70
2021/07/23 11:10:54;;;;;;;5.10;3.00;;;;;;;30.68;44.15;101100.50;5014819;28;20072;-70
2021/07/23 11:13:40;;;;;;;7.53;3.30;;;;;;;29.89;45.53;101097.25;5015295;28;20048;-70
2021/07/23 11:16:27;;;;;;;9.25;3.40;;;;;;;29.63;45.45;101090.66;5015177;28;20402;-70
2021/07/23 11:19:22;;;;;;;7.75;3.30;;;;;;;30.29;44.71;101085.31;5001402;28;20370;-70
2021/07/23 11:22:11;;;;;;;8.15;3.60;;;;;;;30.54;44.31;101083.88;5015754;28;20054;-70
2021/07/23 11:24:59;;;;;;;5.72;3.40;;;;;;;30.31;44.02;101086.06;5015620;28;20034;-70
2021/07/23 11:27:50;;;;;;;7.78;3.60;;;;;;;30.52;43.59;101075.91;5017403;28;20041;-70
2021/07/23 11:30:37;;;;;;;6.07;3.13;;;;;;;30.72;43.38;101082.16;5019707;28;20477;-70
2021/07/23 11:33:28;;;;;;;7.28;4.07;;;;;;;31.24;43.32;101068.03;5018506;28;20029;-69
2021/07/23 11:36:35;;;;;;;8.85;3.35;;;;;;;31.75;41.01;101064.72;5018848;28;20025;-70
2021/07/23 11:39:24;;;;;;;6.63;3.40;;;;;;;31.69;41.85;101073.47;5018962;28;20504;-69
2021/07/23 11:42:09;;;;;;;7.05;3.45;;;;;;;31.70;41.90;101059.75;5005524;28;20042;-70
2021/07/23 11:44:59;;;;;;;6.60;4.55;;;;;;;31.91;41.23;101073.03;5018386;28;20025;-70
2021/07/23 11:47:50;;;;;;;6.32;3.10;;;;;;;31.53;41.47;101062.47;5018974;28;20022;-70
2021/07/23 11:50:36;;;;;;;6.70;3.40;;;;;;;31.83;41.96;101057.56;5018543;28;20034;-72
2021/07/23 11:53:24;;;;;;;11.18;4.03;;;;;;;32.19;40.93;101051.13;5005962;28;20390;-71
2021/07/23 11:56:29;;;;;;;6.05;4.85;;;;;;;31.66;40.67;101055.63;5019194;28;20053;-70
2021/07/23 11:59:15;;;;;;;12.10;8.02;;;;;;;31.68;40.97;101058.19;5018937;28;20030;-71
2021/07/23 12:02:07;;;;;;;7.35;3.72;;;;;;;31.30;41.42;101053.91;5018365;28;20033;-70
2021/07/23 12:05:14;;;;;;;6.65;3.72;;;;;;;31.88;41.14;101051.66;5018816;28;20489;-71
2021/07/23 12:08:01;;;;;;;6.00;3.83;;;;;;;31.24;41.06;101051.78;5018839;28;20033;-71
2021/07/23 12:10:54;;;;;;;7.72;3.33;;;;;;;31.33;41.75;101046.31;5017515;28;20045;-71
2021/07/23 12:13:39;;;;;;;6.90;3.70;;;;;;;31.03;41.00;101037.59;5017471;28;20040;-72
2021/07/23 12:16:25;;;;;;;5.15;4.10;;;;;;;31.04;41.88;101040.16;5018003;28;20041;-71
2021/07/23 12:19:17;;;;;;;8.32;3.78;;;;;;;31.54;41.47;101037.06;5017291;28;20438;-71
2021/07/23 12:22:11;;;;;;;8.63;3.67;;;;;;;31.85;41.43;101044.69;5017970;28;20369;-71
2021/07/23 12:24:57;;;;;;;4.85;3.53;;;;;;;31.74;41.60;101044.88;5017464;28;20108;-71
2021/07/23 12:27:43;;;;;;;6.45;3.40;;;;;;;31.50;40.20;101030.25;5018320;28;20096;-70
2021/07/23 12:30:35;;;;;;;9.38;3.80;;;;;;;31.31;40.75;101037.47;5018415;28;20034;-72
2021/07/23 12:33:28;;;;;;;8.88;4.10;;;;;;;31.91;41.21;101035.97;5017543;28;20026;-72
2021/07/23 12:36:24;;;;;;;6.97;3.90;;;;;;;31.54;40.26;101032.47;5017125;28;20108;-72
2021/07/23 12:39:10;;;;;;;5.18;3.58;;;;;;;31.82;40.28;101036.03;5016550;28;20033;-72
2021/07/23 12:42:14;;;;;;;7.18;3.88;;;;;;;31.86;40.36;101021.16;5017378;28;20470;-71
2021/07/23 12:45:00;;;;;;;5.82;3.85;;;;;;;31.84;41.77;101024.03;5017417;28;20378;-71
2021/07/23 12:47:46;;;;;;;7.70;3.83;;;;;;;31.72;41.07;101022.53;5016820;28;20033;-71
2021/07/23 12:50:32;;;;;;;11.48;4.10;;;;;;;31.81;40.71;101027.03;5017603;28;20030;-71
2021/07/23 12:53:25;;;;;;;6.22;3.75;;;;;;;31.18;40.47;101015.28;5004470;28;20040;-71
2021/07/23 12:56:11;;;;;;;7.22;3.58;;;;;;;31.89;39.65;101018.97;5017812;28;20034;-71
2021/07/23 12:58:57;;;;;;;6.85;3.83;;;;;;;31.69;40.66;101011.97;5004749;28;20369;-71
2021/07/23 13:01:43;;;;;;;9.13;3.92;;;;;;;32.03;40.77;101023.00;5016837;28;20343;-72
2021/07/23 13:04:29;;;;;;;5.35;3.72;;;;;;;31.97;40.37;101019.06;5016635;28;20406;-72
2021/07/23 13:07:15;;;;;;;5.45;3.85;;;;;;;31.12;40.90;101009.63;5016662;28;20356;-72
2021/07/23 13:10:05;;;;;;;7.20;4.38;;;;;;;31.34;40.85;101001.97;5016809;28;20037;-71
2021/07/23 13:12:51;;;;;;;8.60;4.50;;;;;;;31.56;40.70;101005.22;5017209;28;20168;-72
2021/07/23 13:15:37;;;;;;;6.35;4.78;;;;;;;31.88;39.46;101008.28;5016630;28;20033;-72
2021/07/23 13:18:22;;;;;;;12.18;7.65;;;;;;;32.24;40.10;101005.38;5016375;28;20030;-71
2021/07/23 13:21:10;;;;;;;9.10;5.20;;;;;;;31.87;40.65;100998.47;5017116;28;20033;-71
2021/07/23 13:23:57;;;;;;;6.03;3.88;;;;;;;31.00;40.89;100994.59;5017547;28;20026;-72
2021/07/23 13:26:43;;;;;;;12.65;4.68;;;;;;;31.69;40.44;100994.88;5016514;28;20394;-70
2021/07/23 13:29:29;;;;;;;8.98;4.40;;;;;;;31.58;40.44;101001.34;5016785;28;20117;-71
2021/07/23 13:32:15;;;;;;;6.47;4.00;;;;;;;31.74;40.36;100996.09;5017690;28;20022;-71
2021/07/23 13:35:00;;;;;;;10.30;4.07;;;;;;;31.34;40.89;100990.31;5016030;28;20026;-70
2021/07/23 13:37:50;;;;;;;6.97;4.05;;;;;;;31.41;41.12;100995.94;5015814;28;20454;-71
2021/07/23 13:40:37;;;;;;;4.95;3.80;;;;;;;31.18;40.21;100993.63;5015783;28;20034;-71
2021/07/23 13:43:22;;;;;;;9.90;4.22;;;;;;;31.58;40.38;100989.69;5016785;28;20123;-72
2021/07/23 13:46:09;;;;;;;5.60;3.95;;;;;;;31.51;40.40;100983.19;5016071;28;20087;-71